Terminal Aerodrome Forecast
Issued by NWS

Home | Current Version | Previous Version | Text Only | Print | Product List | Glossary On
Versions: 1 2 3 4 5 6 7 8 9 10 11 12 13 14 15 16 17 18 19 20 21 22 23 24 25 26 27 28
130
FTAK31 PANC 310529
TAFADU
TAF
PADU 310529Z 3106/0106 21015G22KT P6SM VCSH OVC030
     FM310800 21014KT 5SM -RA BR SCT007 OVC015
     FM311200 22011KT 4SM -RA BR BKN007 OVC015
     FM312000 30008KT P6SM VCSH BKN030=

USA.gov is the U.S. government's official web portal to all federal, state and local government web resources and services.